Time;durP1;ratioP1;P1;durP2;ratioP2;P2;SDS_P1;SDS_P2;PMS_P1;PMS_P2;Temp;Humidity;BMP_temperature;BMP_pressure;BME280_temperature;BME280_humidity;BME280_pressure;Samples;Min_cycle;Max_cycle;Signal;HPM_P1;HPM_P2
2023/01/16 00:01:12;;;;;;;4.40;1.60;;;6.10;79.20;;;;;;5085389;27;20035;-85
2023/01/16 00:03:38;;;;;;;6.47;1.80;;;6.10;79.30;;;;;;5135194;27;20084;-85
2023/01/16 00:06:04;;;;;;;4.35;1.80;;;6.10;79.30;;;;;;5134914;27;20035;-86
2023/01/16 00:08:30;;;;;;;5.47;1.90;;;6.00;79.40;;;;;;5110645;27;20043;-85
2023/01/16 00:10:56;;;;;;;4.35;1.70;;;6.00;79.50;;;;;;5099916;27;20035;-85
2023/01/16 00:13:22;;;;;;;4.80;1.60;;;6.00;79.50;;;;;;5134014;27;20027;-85
2023/01/16 00:15:49;;;;;;;4.53;1.70;;;6.00;79.50;;;;;;5117371;27;20115;-85
2023/01/16 00:18:15;;;;;;;4.50;1.70;;;5.90;79.50;;;;;;5100063;27;20031;-85
2023/01/16 00:20:41;;;;;;;7.82;3.30;;;5.90;79.60;;;;;;5125250;27;20114;-85
2023/01/16 00:23:07;;;;;;;4.65;2.10;;;5.90;79.70;;;;;;5117097;27;20035;-84
2023/01/16 00:25:35;;;;;;;5.45;1.92;;;5.80;79.70;;;;;;5117542;27;20096;-84
2023/01/16 00:28:00;;;;;;;3.28;1.67;;;5.80;79.80;;;;;;5117290;27;20047;-84
2023/01/16 00:30:26;;;;;;;4.88;1.70;;;5.80;79.80;;;;;;5117320;27;20092;-84
2023/01/16 00:32:52;;;;;;;7.63;1.83;;;5.80;79.90;;;;;;5117490;27;20435;-84
2023/01/16 00:35:17;;;;;;;6.57;1.77;;;5.80;80.00;;;;;;5117045;27;20448;-84
2023/01/16 00:37:43;;;;;;;4.85;1.60;;;5.70;80.20;;;;;;5134600;27;20435;-84
2023/01/16 00:40:09;;;;;;;3.55;1.83;;;5.70;80.30;;;;;;5098663;27;20478;-85
2023/01/16 00:42:35;;;;;;;5.25;1.85;;;5.70;80.40;;;;;;5134432;27;20034;-85
2023/01/16 00:45:01;;;;;;;5.80;2.10;;;5.80;80.70;;;;;;5117373;27;20039;-84
2023/01/16 00:47:26;;;;;;;6.38;1.95;;;5.70;80.70;;;;;;5131604;27;20043;-84
2023/01/16 00:49:52;;;;;;;5.65;1.40;;;5.70;80.90;;;;;;5116975;27;20046;-84
2023/01/16 00:52:18;;;;;;;6.63;2.10;;;5.70;81.00;;;;;;5111127;27;20474;-84
2023/01/16 00:54:44;;;;;;;5.43;1.75;;;5.70;81.10;;;;;;5090990;27;20042;-84
2023/01/16 00:57:09;;;;;;;3.30;1.58;;;5.70;81.10;;;;;;5092147;27;20478;-84
2023/01/16 00:59:35;;;;;;;6.07;2.03;;;5.70;81.20;;;;;;5097245;27;20513;-84
2023/01/16 01:02:01;;;;;;;4.32;2.05;;;5.70;81.20;;;;;;5087474;28;20153;-84
2023/01/16 01:04:28;;;;;;;5.20;1.60;;;5.70;81.70;;;;;;5094982;27;20066;-84
2023/01/16 01:06:53;;;;;;;3.95;2.03;;;5.70;81.30;;;;;;5099672;27;20043;-85
2023/01/16 01:09:19;;;;;;;3.97;1.90;;;5.60;81.30;;;;;;5116711;27;20042;-84
2023/01/16 01:11:45;;;;;;;6.30;2.10;;;5.70;81.30;;;;;;5084092;28;20539;-85
2023/01/16 01:14:10;;;;;;;5.85;1.60;;;5.70;81.20;;;;;;5096562;28;20086;-84
2023/01/16 01:16:36;;;;;;;4.63;1.55;;;5.70;81.10;;;;;;5105737;27;20458;-85
2023/01/16 01:19:02;;;;;;;5.10;1.65;;;5.60;81.00;;;;;;5107375;28;20035;-84
2023/01/16 01:21:27;;;;;;;4.80;1.67;;;5.60;81.10;;;;;;5098868;27;20229;-84
2023/01/16 01:23:56;;;;;;;3.90;1.48;;;5.60;81.10;;;;;;5099537;27;21672;-84
2023/01/16 01:26:21;;;;;;;6.10;1.75;;;5.60;81.20;;;;;;5133280;27;20035;-84
2023/01/16 01:28:47;;;;;;;6.40;1.88;;;5.60;81.20;;;;;;5082588;27;20128;-84
2023/01/16 01:31:13;;;;;;;4.40;1.77;;;5.60;81.20;;;;;;5082086;27;20082;-84
2023/01/16 01:33:39;;;;;;;5.13;1.85;;;5.60;81.20;;;;;;5099699;27;20031;-85
2023/01/16 01:36:06;;;;;;;6.13;2.10;;;5.60;81.30;;;;;;5133050;27;20051;-84
2023/01/16 01:38:32;;;;;;;7.75;2.08;;;5.50;81.30;;;;;;5116096;27;20046;-84
2023/01/16 01:40:58;;;;;;;4.38;1.90;;;5.50;81.20;;;;;;5082392;27;20042;-84
2023/01/16 01:43:42;;;;;;;4.22;1.80;;;5.50;81.20;;;;;;5115687;27;20035;-84
2023/01/16 01:46:18;;;;;;;7.32;1.85;;;5.50;81.20;;;;;;5128505;27;20043;-84
2023/01/16 01:48:44;;;;;;;4.10;1.40;;;5.50;81.30;;;;;;5105374;27;20035;-84
2023/01/16 01:51:16;;;;;;;9.63;2.45;;;5.50;81.30;;;;;;5078738;28;20039;-84
2023/01/16 01:53:58;;;;;;;3.35;1.60;;;5.50;81.30;;;;;;5121960;27;20035;-84
2023/01/16 01:56:44;;;;;;;4.80;1.75;;;5.40;81.30;;;;;;5116154;27;20031;-84
2023/01/16 01:59:27;;;;;;;6.13;1.95;;;5.40;81.30;;;;;;5115380;28;20039;-84
2023/01/16 02:01:54;;;;;;;5.50;2.00;;;5.40;81.40;;;;;;5115678;27;20031;-84
2023/01/16 02:04:28;;;;;;;4.57;1.77;;;5.60;81.60;;;;;;5098891;28;20117;-85
2023/01/16 02:07:01;;;;;;;3.78;1.25;;;5.40;81.50;;;;;;5115798;28;20031;-84
2023/01/16 02:09:27;;;;;;;7.25;2.03;;;5.40;81.60;;;;;;5133016;27;20085;-84
2023/01/16 02:12:09;;;;;;;5.82;1.80;;;5.40;81.70;;;;;;5115757;28;20118;-84
2023/01/16 02:14:41;;;;;;;4.90;1.75;;;5.30;81.60;;;;;;5132778;27;20039;-85
2023/01/16 02:20:23;;;;;;;6.40;2.17;;;5.30;81.70;;;;;;5132808;28;20047;-85
2023/01/16 02:23:07;;;;;;;4.20;1.77;;;5.30;81.70;;;;;;5133264;28;20533;-84
2023/01/16 02:25:39;;;;;;;5.30;1.67;;;5.30;81.70;;;;;;5119565;27;20083;-85
2023/01/16 02:28:46;;;;;;;5.43;1.90;;;5.30;81.70;;;;;;5137064;27;20047;-84
2023/01/16 02:31:33;;;;;;;5.43;1.98;;;5.30;81.80;;;;;;5136838;27;20039;-85
2023/01/16 02:34:25;;;;;;;4.70;1.80;;;5.20;81.90;;;;;;5119927;27;20038;-85
2023/01/16 02:37:10;;;;;;;3.85;1.60;;;5.20;81.90;;;;;;5120277;27;20147;-85
2023/01/16 02:39:42;;;;;;;2.78;1.40;;;5.20;82.00;;;;;;5120122;27;20043;-85
2023/01/16 02:42:33;;;;;;;4.55;1.70;;;5.20;82.00;;;;;;5136722;27;20039;-85
2023/01/16 02:45:14;;;;;;;5.82;2.33;;;5.20;82.10;;;;;;5119981;27;20409;-85
2023/01/16 02:47:54;;;;;;;4.22;1.67;;;5.20;82.10;;;;;;5119787;27;20129;-85
2023/01/16 02:50:20;;;;;;;4.28;1.85;;;5.20;82.00;;;;;;5136610;27;20126;-85
2023/01/16 02:52:57;;;;;;;4.03;1.85;;;5.20;82.00;;;;;;5136646;27;20081;-85
2023/01/16 02:55:47;;;;;;;4.38;1.85;;;5.20;82.10;;;;;;5119857;27;20358;-85
2023/01/16 02:58:15;;;;;;;5.40;2.40;;;5.20;82.10;;;;;;5119473;27;20039;-85
2023/01/16 03:00:55;;;;;;;5.93;2.47;;;5.20;82.10;;;;;;5102691;27;20478;-84
2023/01/16 03:03:40;;;;;;;4.88;2.10;;;5.20;82.20;;;;;;5136742;27;20045;-84
2023/01/16 03:06:14;;;;;;;6.63;2.33;;;5.20;82.20;;;;;;5119416;27;20079;-85
2023/01/16 03:08:46;;;;;;;;;;;5.20;82.40;;;;;;5119644;27;20046;-84
2023/01/16 03:11:22;;;;;;;5.35;2.30;;;5.20;82.30;;;;;;5119163;27;19919;-85
2023/01/16 03:14:05;;;;;;;6.50;2.70;;;5.20;82.50;;;;;;5136207;27;20035;-84
2023/01/16 03:16:39;;;;;;;5.40;2.85;;;5.20;82.60;;;;;;5119084;27;20481;-85
2023/01/16 03:19:35;;;;;;;6.20;3.20;;;5.20;82.70;;;;;;5118273;27;20063;-85
2023/01/16 03:22:07;;;;;;;7.13;3.03;;;5.20;82.90;;;;;;5102799;27;20071;-85
2023/01/16 03:24:54;;;;;;;9.02;4.40;;;5.20;82.90;;;;;;5119036;27;20039;-85
2023/01/16 03:27:52;;;;;;;6.53;4.57;;;5.20;83.10;;;;;;5119142;27;20257;-84
2023/01/16 03:30:35;;;;;;;10.93;5.22;;;5.20;83.20;;;;;;5082759;27;20044;-85
2023/01/16 03:33:31;;;;;;;11.63;4.53;;;5.30;83.30;;;;;;5118641;27;20164;-85
2023/01/16 03:36:23;;;;;;;7.35;4.53;;;5.30;83.40;;;;;;5096942;27;20044;-85
2023/01/16 03:38:51;;;;;;;6.47;4.60;;;5.30;83.50;;;;;;5098196;28;20040;-84
2023/01/16 03:41:20;;;;;;;11.13;5.85;;;5.30;83.50;;;;;;5097964;28;20039;-85
2023/01/16 03:43:52;;;;;;;8.43;4.70;;;5.50;83.80;;;;;;5098437;28;20069;-81
2023/01/16 03:46:25;;;;;;;9.20;5.35;;;5.40;83.80;;;;;;5115318;28;20085;-81
2023/01/16 03:49:03;;;;;;;8.32;5.30;;;5.40;83.80;;;;;;5098214;28;20442;-81
2023/01/16 03:51:34;;;;;;;7.72;4.53;;;5.40;83.90;;;;;;5114808;28;20047;-82
2023/01/16 03:54:25;;;;;;;9.80;5.07;;;5.50;83.90;;;;;;5114837;28;20071;-82
2023/01/16 03:57:11;;;;;;;8.65;4.38;;;5.50;83.90;;;;;;5098007;28;20407;-85
2023/01/16 03:59:38;;;;;;;9.60;6.20;;;5.50;83.90;;;;;;5114851;28;20044;-84
2023/01/16 04:02:09;;;;;;;9.60;5.65;;;5.50;83.90;;;;;;5098171;28;20443;-85
2023/01/16 04:05:30;;;;;;;10.52;5.88;;;5.50;83.90;;;;;;5114656;28;20122;-85
2023/01/16 04:07:58;;;;;;;8.57;5.93;;;5.60;84.00;;;;;;5053314;28;20136;-85
2023/01/16 04:10:46;;;;;;;9.25;6.50;;;5.50;83.90;;;;;;5115713;27;20047;-81
2023/01/16 04:13:16;;;;;;;10.30;6.85;;;5.70;83.90;;;;;;5133031;27;20367;-82
2023/01/16 04:15:51;;;;;;;7.97;6.00;;;5.60;83.90;;;;;;5135172;27;20118;-81
2023/01/16 04:18:16;;;;;;;9.75;7.28;;;5.60;83.90;;;;;;5117798;27;20121;-81
2023/01/16 04:20:46;;;;;;;10.13;5.82;;;5.60;83.80;;;;;;5083991;27;20079;-81
2023/01/16 04:23:15;;;;;;;7.70;5.75;;;5.60;83.80;;;;;;5117645;27;20042;-81
2023/01/16 04:25:41;;;;;;;13.80;8.43;;;5.70;83.80;;;;;;5098422;27;20032;-81
2023/01/16 04:28:07;;;;;;;13.13;8.65;;;5.70;83.80;;;;;;5097033;28;20043;-81
2023/01/16 04:30:33;;;;;;;14.73;9.30;;;5.70;83.80;;;;;;5114016;28;20073;-81
2023/01/16 04:33:02;;;;;;;11.25;9.25;;;5.70;83.70;;;;;;5097856;28;20042;-81
2023/01/16 04:35:27;;;;;;;16.38;9.18;;;5.70;83.70;;;;;;5096911;28;20081;-81
2023/01/16 04:37:53;;;;;;;14.48;9.02;;;5.70;83.60;;;;;;5114006;28;20036;-81
2023/01/16 04:40:19;;;;;;;14.65;9.57;;;5.80;83.60;;;;;;5117075;27;20043;-81
2023/01/16 04:42:44;;;;;;;12.77;9.13;;;5.80;83.50;;;;;;5100132;27;20035;-81
2023/01/16 04:45:10;;;;;;;11.65;8.27;;;5.70;83.30;;;;;;5117305;27;20031;-82
2023/01/16 04:47:36;;;;;;;12.60;9.55;;;5.80;83.30;;;;;;5100544;27;20493;-81
2023/01/16 04:50:02;;;;;;;11.30;8.25;;;5.80;83.20;;;;;;5100319;27;20150;-81
2023/01/16 04:52:28;;;;;;;14.70;8.20;;;5.80;83.10;;;;;;5117909;27;20039;-81
2023/01/16 04:54:53;;;;;;;11.45;8.43;;;5.80;83.00;;;;;;5096850;28;20471;-81
2023/01/16 04:57:19;;;;;;;11.63;8.23;;;5.80;82.80;;;;;;5079784;28;20103;-81
2023/01/16 04:59:45;;;;;;;12.57;8.57;;;5.80;82.70;;;;;;5080082;28;20043;-81
2023/01/16 05:02:10;;;;;;;10.85;7.60;;;5.80;82.60;;;;;;5079364;28;20398;-81
2023/01/16 05:04:36;;;;;;;11.25;7.57;;;5.80;82.50;;;;;;5084343;28;20039;-81
2023/01/16 05:07:02;;;;;;;9.27;7.30;;;5.80;82.40;;;;;;5096341;28;20425;-81
2023/01/16 05:09:28;;;;;;;12.27;7.85;;;5.70;82.30;;;;;;5116839;27;20043;-81
2023/01/16 05:11:53;;;;;;;11.73;9.05;;;5.80;82.20;;;;;;5099745;27;20594;-81
2023/01/16 05:14:19;;;;;;;12.73;9.13;;;5.70;81.90;;;;;;5099793;27;20039;-81
2023/01/16 05:16:45;;;;;;;10.77;8.38;;;5.70;81.70;;;;;;5116815;27;20103;-81
2023/01/16 05:19:11;;;;;;;14.15;8.85;;;5.70;81.60;;;;;;5088124;27;20031;-78
2023/01/16 05:21:37;;;;;;;12.05;9.10;;;5.60;81.40;;;;;;5099269;27;20031;-83
2023/01/16 05:24:03;;;;;;;12.57;8.45;;;5.60;81.30;;;;;;5116354;27;20384;-81
2023/01/16 05:26:28;;;;;;;13.57;9.30;;;5.50;81.20;;;;;;5115822;27;20466;-81
2023/01/16 05:28:54;;;;;;;12.95;9.95;;;5.50;81.10;;;;;;5101780;28;20035;-81
2023/01/16 05:31:20;;;;;;;18.75;9.98;;;5.50;81.10;;;;;;5097451;27;20036;-81
2023/01/16 05:33:45;;;;;;;13.48;9.70;;;5.40;81.20;;;;;;5081627;27;20542;-81
2023/01/16 05:36:11;;;;;;;17.77;8.98;;;5.40;81.20;;;;;;5116048;27;20069;-82
2023/01/16 05:38:37;;;;;;;15.40;9.57;;;5.40;81.30;;;;;;5098997;27;20035;-81
2023/01/16 05:41:03;;;;;;;12.45;8.80;;;5.60;81.50;;;;;;5099013;27;20049;-81
2023/01/16 05:43:29;;;;;;;13.25;7.85;;;5.30;81.40;;;;;;5099257;27;20134;-81
2023/01/16 05:45:54;;;;;;;12.50;8.63;;;5.30;81.40;;;;;;5082578;27;20070;-81
2023/01/16 05:48:20;;;;;;;12.15;8.27;;;5.40;81.40;;;;;;5116014;27;20042;-81
2023/01/16 05:50:46;;;;;;;13.80;8.32;;;5.20;81.30;;;;;;5098882;27;20035;-81
2023/01/16 05:53:11;;;;;;;13.15;7.05;;;5.10;81.20;;;;;;5115984;27;20039;-81
2023/01/16 05:55:43;;;;;;;16.48;7.95;;;5.10;81.30;;;;;;5116026;27;20095;-81
2023/01/16 05:58:10;;;;;;;10.43;6.28;;;5.10;81.40;;;;;;5115742;27;20072;-81
2023/01/16 06:00:37;;;;;;;10.98;5.95;;;5.10;81.90;;;;;;5111909;28;20039;-81
2023/01/16 06:03:03;;;;;;;16.73;7.47;;;5.00;81.50;;;;;;5092981;27;20201;-81
2023/01/16 06:05:29;;;;;;;13.38;6.15;;;4.90;81.50;;;;;;5098759;27;20062;-81
2023/01/16 06:07:58;;;;;;;10.13;6.03;;;4.90;81.50;;;;;;5092882;28;20031;-81
2023/01/16 06:10:25;;;;;;;11.35;5.82;;;4.90;81.60;;;;;;5112022;27;20047;-81
2023/01/16 06:12:51;;;;;;;10.75;6.03;;;4.90;81.60;;;;;;5115972;27;20035;-81
2023/01/16 06:15:17;;;;;;;11.20;6.70;;;4.80;81.70;;;;;;5115924;27;20092;-81
2023/01/16 06:17:42;;;;;;;11.15;6.07;;;4.80;81.70;;;;;;5098963;28;20115;-81
2023/01/16 06:20:09;;;;;;;11.80;5.63;;;4.80;81.70;;;;;;5115599;27;20375;-81
2023/01/16 06:22:35;;;;;;;7.88;5.18;;;4.70;81.80;;;;;;5115562;28;20039;-81
2023/01/16 06:25:01;;;;;;;12.82;5.30;;;4.70;81.90;;;;;;5082056;28;20066;-81
2023/01/16 06:27:26;;;;;;;15.80;6.38;;;4.60;81.90;;;;;;5115507;28;20047;-81
2023/01/16 06:29:52;;;;;;;9.07;4.47;;;4.60;82.00;;;;;;5132797;28;20122;-81
2023/01/16 06:32:18;;;;;;;10.60;4.70;;;4.60;82.10;;;;;;5081710;28;20065;-81
2023/01/16 06:34:44;;;;;;;12.48;4.53;;;4.60;82.30;;;;;;5132575;28;20047;-81
2023/01/16 06:37:10;;;;;;;10.38;4.57;;;5.10;82.70;;;;;;5115186;28;20103;-81
2023/01/16 06:39:36;;;;;;;7.45;4.80;;;4.60;82.50;;;;;;5115578;28;20131;-81
2023/01/16 06:42:04;;;;;;;12.25;4.85;;;4.60;82.50;;;;;;5098353;28;20511;-81
2023/01/16 06:44:33;;;;;;;9.63;4.20;;;4.50;82.50;;;;;;5098491;28;20039;-81
2023/01/16 06:47:00;;;;;;;6.38;4.05;;;4.50;82.70;;;;;;5095214;28;20043;-81
2023/01/16 06:49:26;;;;;;;9.10;4.13;;;4.50;82.70;;;;;;5094919;28;20043;-82
2023/01/16 06:51:52;;;;;;;6.57;4.13;;;4.50;82.80;;;;;;5094898;28;20063;-81
2023/01/16 06:54:18;;;;;;;8.55;4.20;;;4.50;82.90;;;;;;5061494;28;20039;-82
2023/01/16 06:56:43;;;;;;;8.50;3.65;;;4.80;83.10;;;;;;5078085;28;20391;-80
2023/01/16 06:59:09;;;;;;;8.50;4.25;;;4.40;83.00;;;;;;5078305;28;20058;-81
2023/01/16 07:01:35;;;;;;;7.03;3.60;;;4.40;83.00;;;;;;5105272;28;20043;-81
2023/01/16 07:04:01;;;;;;;8.57;3.40;;;4.40;83.20;;;;;;5082057;28;20142;-81
2023/01/16 07:06:26;;;;;;;6.80;3.45;;;4.40;83.20;;;;;;5094839;28;20101;-81
2023/01/16 07:08:52;;;;;;;6.57;3.20;;;4.40;83.20;;;;;;5095225;28;20065;-82
2023/01/16 07:11:19;;;;;;;7.47;3.00;;;4.30;83.20;;;;;;5096316;28;20051;-81
2023/01/16 07:13:45;;;;;;;9.50;3.22;;;4.30;83.30;;;;;;5098653;28;20028;-82
2023/01/16 07:24:37;;;;;;;7.22;2.55;;;4.30;83.70;;;;;;5071692;28;20860;-82
2023/01/16 07:27:05;;;;;;;12.65;3.42;;;4.30;83.80;;;;;;5116066;28;20454;-82
2023/01/16 07:29:33;;;;;;;7.78;3.25;;;4.30;83.90;;;;;;5115374;28;20145;-82
2023/01/16 07:32:01;;;;;;;7.80;3.10;;;4.30;84.00;;;;;;5113753;27;20035;-82
2023/01/16 07:34:27;;;;;;;11.35;3.83;;;4.30;84.10;;;;;;5101527;27;20121;-82
2023/01/16 07:36:52;;;;;;;12.80;4.47;;;4.30;84.10;;;;;;5085081;27;20143;-82
2023/01/16 07:39:18;;;;;;;7.45;3.03;;;4.30;84.10;;;;;;5084865;27;20483;-82
2023/01/16 07:41:45;;;;;;;8.18;2.55;;;4.30;84.20;;;;;;5118519;27;20070;-82
2023/01/16 07:44:10;;;;;;;8.52;3.22;;;4.40;84.30;;;;;;5101679;27;20126;-82
2023/01/16 07:46:36;;;;;;;10.73;3.60;;;4.40;84.30;;;;;;5101508;27;20071;-82
2023/01/16 07:49:02;;;;;;;8.85;2.75;;;4.40;84.40;;;;;;5101803;27;20042;-82
2023/01/16 07:51:27;;;;;;;8.85;2.70;;;4.40;84.40;;;;;;5101353;27;20550;-82
2023/01/16 07:53:53;;;;;;;10.57;3.47;;;4.40;84.50;;;;;;5119080;27;20057;-82
2023/01/16 07:56:19;;;;;;;9.38;3.00;;;4.40;84.50;;;;;;5101592;27;20043;-81
2023/01/16 07:58:45;;;;;;;10.00;3.65;;;4.70;84.60;;;;;;5118032;27;20042;-82
2023/01/16 08:01:11;;;;;;;8.90;3.30;;;4.50;84.50;;;;;;5101490;27;20039;-82
2023/01/16 08:03:37;;;;;;;10.45;3.70;;;4.50;84.50;;;;;;5135569;27;20058;-82
2023/01/16 08:06:03;;;;;;;11.43;3.60;;;4.50;84.50;;;;;;5135384;27;20066;-82
2023/01/16 08:08:30;;;;;;;9.07;3.60;;;4.50;84.50;;;;;;5118299;27;20538;-83
2023/01/16 08:11:35;;;;;;;7.57;3.35;;;4.50;84.50;;;;;;5117944;27;20035;-82
2023/01/16 08:13:46;;;;;;;8.35;4.28;;;4.50;84.50;;;;;;5135222;27;20043;-82
2023/01/16 08:16:12;;;;;;;9.00;3.10;;;4.50;84.50;;;;;;5100999;27;20486;-82
2023/01/16 08:18:37;;;;;;;8.43;3.28;;;4.50;84.50;;;;;;5135089;27;20039;-82
2023/01/16 08:21:03;;;;;;;8.90;3.80;;;4.50;84.50;;;;;;5100650;27;20447;-82
2023/01/16 08:23:29;;;;;;;7.43;3.42;;;4.60;84.60;;;;;;5083940;27;20039;-82
2023/01/16 08:25:54;;;;;;;8.27;3.50;;;4.50;84.50;;;;;;5101006;27;20039;-82
2023/01/16 08:28:20;;;;;;;10.75;4.28;;;4.50;84.50;;;;;;5083926;27;20516;-82
2023/01/16 08:30:46;;;;;;;9.45;4.22;;;4.60;84.60;;;;;;5117526;27;20082;-82
2023/01/16 08:33:12;;;;;;;10.73;3.90;;;4.60;84.60;;;;;;5100993;27;20033;-83
2023/01/16 08:35:37;;;;;;;10.68;4.35;;;4.60;84.70;;;;;;5100176;27;20058;-82
2023/01/16 08:38:03;;;;;;;10.95;4.15;;;4.80;84.80;;;;;;5100852;27;20054;-81
2023/01/16 08:40:29;;;;;;;7.60;3.33;;;4.60;84.70;;;;;;5117565;27;20489;-81
2023/01/16 08:51:22;;;;;;;5.65;2.97;;;4.70;84.70;;;;;;5139902;27;20047;-86
2023/01/16 08:53:52;;;;;;;7.97;3.83;;;4.70;84.80;;;;;;5105768;27;20398;-86
2023/01/16 08:56:20;;;;;;;6.40;3.53;;;4.70;84.70;;;;;;5118819;27;20033;-86
2023/01/16 08:58:45;;;;;;;8.90;3.70;;;4.70;84.70;;;;;;5104842;27;20430;-85
2023/01/16 09:01:11;;;;;;;8.60;3.35;;;4.70;84.80;;;;;;5106810;27;20064;-86
2023/01/16 09:03:37;;;;;;;7.95;3.50;;;4.70;84.70;;;;;;5124448;27;20030;-86
2023/01/16 09:06:03;;;;;;;7.22;2.92;;;4.70;85.20;;;;;;5091563;27;20423;-87
2023/01/16 09:08:28;;;;;;;8.50;3.33;;;4.70;84.80;;;;;;5091800;27;20035;-87
2023/01/16 09:13:50;;;;;;;5.80;3.17;;;4.80;84.90;;;;;;5127859;27;21402;-86
2023/01/16 09:16:17;;;;;;;8.18;2.97;;;4.80;84.90;;;;;;5112812;27;20367;-87
2023/01/16 09:18:43;;;;;;;10.52;3.50;;;4.80;85.00;;;;;;5107329;27;20500;-86
2023/01/16 09:21:08;;;;;;;9.98;3.42;;;4.80;85.00;;;;;;5105384;27;20042;-87
2023/01/16 09:23:34;;;;;;;9.95;3.42;;;4.80;85.40;;;;;;5109505;27;20447;-87
2023/01/16 09:26:00;;;;;;;6.18;3.25;;;4.80;85.10;;;;;;5106808;27;20046;-87
2023/01/16 09:28:25;;;;;;;6.68;3.00;;;4.80;85.10;;;;;;5109534;27;20034;-87
2023/01/16 09:30:52;;;;;;;5.50;2.75;;;4.90;85.20;;;;;;5107677;27;20090;-86
2023/01/16 09:33:17;;;;;;;4.60;2.70;;;4.80;85.20;;;;;;5090327;27;20072;-87
2023/01/16 09:35:43;;;;;;;5.53;2.70;;;4.80;85.30;;;;;;5122427;27;20059;-86
2023/01/16 09:38:09;;;;;;;5.25;2.55;;;4.80;85.40;;;;;;5092014;27;20047;-87
2023/01/16 09:40:35;;;;;;;6.20;2.50;;;4.80;85.40;;;;;;5090773;27;20079;-87
2023/01/16 09:43:36;;;;;;;4.35;2.38;;;4.90;85.50;;;;;;5124142;27;20122;-86
2023/01/16 09:46:10;;;;;;;7.95;2.78;;;4.80;85.60;;;;;;5142019;27;20039;-87
2023/01/16 09:48:48;;;;;;;;;;;4.80;85.60;;;;;;5124170;27;20079;-87
2023/01/16 09:58:34;;;;;;;4.57;2.40;;;4.80;85.60;;;;;;5139942;27;20013;-88
2023/01/16 10:00:08;;;;;;;6.43;2.20;;;4.80;85.70;;;;;;5129401;27;20457;-87
2023/01/16 10:02:35;;;;;;;8.82;2.70;;;4.80;85.80;;;;;;5104982;27;20042;-88
2023/01/16 10:05:04;;;;;;;6.43;2.28;;;4.80;85.80;;;;;;5105414;27;20042;-88
2023/01/16 10:07:39;;;;;;;3.00;1.42;;;4.80;86.00;;;;;;5123072;27;20078;-87
2023/01/16 10:10:21;;;;;;;3.88;1.60;;;4.80;86.00;;;;;;5115841;27;20076;-87
2023/01/16 10:13:10;;;;;;;4.53;1.98;;;4.80;85.80;;;;;;5115856;27;20035;-87
2023/01/16 10:15:36;;;;;;;4.75;1.33;;;4.80;85.60;;;;;;5069262;27;20043;-87
2023/01/16 10:18:26;;;;;;;5.68;1.52;;;4.80;85.60;;;;;;5116038;28;20043;-87
2023/01/16 10:20:52;;;;;;;3.67;1.55;;;4.80;85.50;;;;;;5115843;27;20039;-87
2023/01/16 10:23:26;;;;;;;2.85;1.20;;;4.80;85.40;;;;;;5115833;28;20043;-86
2023/01/16 10:26:04;;;;;;;2.38;1.20;;;4.80;85.40;;;;;;5115789;28;20096;-86
2023/01/16 10:28:38;;;;;;;2.95;1.60;;;4.80;85.40;;;;;;5115439;28;20043;-87
2023/01/16 10:31:27;;;;;;;3.70;1.02;;;4.70;85.20;;;;;;5115236;28;20043;-86
2023/01/16 10:34:05;;;;;;;4.07;1.30;;;4.70;85.10;;;;;;5115226;28;20118;-86
2023/01/16 10:36:35;;;;;;;2.63;1.20;;;4.80;85.20;;;;;;5137702;27;20073;-86
2023/01/16 10:39:03;;;;;;;2.47;1.00;;;4.80;85.20;;;;;;5115588;27;20050;-86
2023/01/16 10:49:46;;;;;;;2.58;1.15;;;4.60;85.00;;;;;;5126654;27;20553;-85
2023/01/16 10:52:12;;;;;;;2.35;1.13;;;4.60;85.10;;;;;;5109821;27;20030;-86
2023/01/16 10:54:38;;;;;;;2.47;1.30;;;4.60;85.10;;;;;;5108739;27;20424;-85
2023/01/16 10:57:16;;;;;;;2.85;1.48;;;4.90;85.40;;;;;;5106083;27;20054;-85
2023/01/16 10:59:48;;;;;;;3.85;1.70;;;4.50;85.20;;;;;;5125865;27;20039;-85
2023/01/16 11:02:25;;;;;;;5.28;2.00;;;4.80;85.40;;;;;;5128884;27;20066;-85
2023/01/16 11:04:52;;;;;;;6.45;1.75;;;4.50;85.30;;;;;;5126116;27;20127;-86
2023/01/16 11:07:22;;;;;;;2.80;1.55;;;4.50;85.20;;;;;;5125102;27;20359;-85
2023/01/16 11:09:48;;;;;;;3.33;1.98;;;4.50;85.40;;;;;;5110145;27;20489;-85
2023/01/16 11:18:29;;;;;;;3.35;1.45;;;4.50;85.40;;;;;;5142800;27;20042;-85
2023/01/16 11:21:01;;;;;;;3.97;1.80;;;4.40;85.40;;;;;;5128422;27;20701;-86
2023/01/16 11:23:36;;;;;;;3.35;1.85;;;4.40;85.40;;;;;;5125765;27;20053;-85
2023/01/16 11:26:04;;;;;;;3.10;1.80;;;4.40;85.50;;;;;;5127476;27;20367;-85
2023/01/16 11:28:31;;;;;;;3.03;1.75;;;4.40;85.40;;;;;;5110030;27;20075;-86
2023/01/16 11:31:19;;;;;;;3.35;1.90;;;4.40;85.50;;;;;;5107482;27;20077;-86
2023/01/16 11:34:00;;;;;;;4.78;1.95;;;4.40;85.60;;;;;;5128441;27;20055;-86
2023/01/16 11:36:29;;;;;;;3.03;2.15;;;4.40;85.70;;;;;;5126267;27;20069;-81
2023/01/16 11:38:55;;;;;;;2.78;1.70;;;4.40;85.70;;;;;;5129248;27;20037;-80
2023/01/16 11:41:27;;;;;;;4.38;1.90;;;4.40;86.20;;;;;;5093781;27;20035;-81
2023/01/16 11:46:50;;;;;;;4.88;2.00;;;4.40;86.00;;;;;;5137154;27;20227;-80
2023/01/16 11:49:23;;;;;;;3.45;1.85;;;4.50;86.10;;;;;;5118394;27;20091;-82
2023/01/16 11:51:53;;;;;;;4.45;2.53;;;4.50;86.20;;;;;;5118634;27;20040;-81
2023/01/16 11:54:26;;;;;;;4.43;2.47;;;4.50;86.30;;;;;;5136027;27;20151;-80
2023/01/16 11:57:16;;;;;;;4.80;2.10;;;4.50;86.30;;;;;;5135181;27;20038;-81
2023/01/16 12:00:04;;;;;;;3.95;2.13;;;4.60;86.50;;;;;;5117989;27;20047;-81
2023/01/16 12:03:03;;;;;;;5.00;2.20;;;4.60;86.70;;;;;;5118402;27;20500;-81
2023/01/16 12:05:56;;;;;;;4.95;2.10;;;4.60;86.70;;;;;;5135575;27;20498;-81
2023/01/16 12:08:35;;;;;;;5.15;2.10;;;4.60;86.70;;;;;;5114498;28;20088;-81
2023/01/16 12:11:07;;;;;;;4.40;2.10;;;4.60;86.70;;;;;;5097636;28;20040;-80
2023/01/16 12:17:04;;;;;;;3.72;2.30;;;4.70;86.70;;;;;;5114614;28;20504;-81
2023/01/16 12:19:51;;;;;;;3.95;1.83;;;4.70;86.80;;;;;;5114434;28;20079;-80
2023/01/16 12:22:35;;;;;;;6.50;2.17;;;4.80;86.80;;;;;;5097225;28;20044;-80
2023/01/16 12:25:25;;;;;;;3.57;2.00;;;4.80;86.90;;;;;;5097373;28;20494;-80
2023/01/16 12:28:18;;;;;;;4.35;2.15;;;4.90;87.00;;;;;;5097345;28;20076;-80
2023/01/16 12:31:17;;;;;;;2.60;1.98;;;4.80;86.90;;;;;;5106796;27;20035;-81
2023/01/16 12:34:24;;;;;;;6.65;2.10;;;4.90;87.10;;;;;;5097254;28;20115;-81
2023/01/16 12:37:00;;;;;;;4.45;2.28;;;4.90;87.00;;;;;;5096975;28;20404;-80
2023/01/16 12:39:58;;;;;;;7.03;2.33;;;4.90;87.00;;;;;;5099142;27;20425;-80
2023/01/16 12:45:55;;;;;;;2.78;1.92;;;5.00;87.20;;;;;;5115422;27;20487;-80
2023/01/16 12:48:21;;;;;;;4.05;2.20;;;5.10;87.30;;;;;;5096850;28;20537;-80
2023/01/16 12:50:49;;;;;;;4.10;2.60;;;5.00;87.10;;;;;;5097040;28;20134;-80
2023/01/16 12:53:39;;;;;;;4.95;2.92;;;5.00;87.20;;;;;;5128736;27;20043;-80
2023/01/16 12:56:38;;;;;;;4.35;2.38;;;5.10;87.40;;;;;;5134524;27;20496;-80
2023/01/16 12:59:12;;;;;;;4.05;2.20;;;5.10;87.40;;;;;;5116724;27;20165;-80
2023/01/16 13:01:41;;;;;;;3.90;2.55;;;5.10;87.40;;;;;;5134057;27;20035;-80
2023/01/16 13:04:31;;;;;;;4.68;2.65;;;5.10;87.30;;;;;;5117352;27;20057;-80
2023/01/16 13:06:58;;;;;;;3.63;2.60;;;5.10;87.40;;;;;;5096628;28;20044;-80
2023/01/16 13:09:43;;;;;;;3.83;2.35;;;5.10;87.40;;;;;;5095568;28;20083;-80
2023/01/16 13:15:19;;;;;;;5.53;2.72;;;5.10;87.50;;;;;;5113397;28;20501;-80
2023/01/16 13:17:47;;;;;;;4.40;2.97;;;5.20;87.60;;;;;;5096250;28;20043;-80
2023/01/16 13:20:16;;;;;;;6.03;3.15;;;5.20;87.60;;;;;;5096515;28;20092;-80
2023/01/16 13:22:53;;;;;;;6.75;3.10;;;5.20;87.60;;;;;;5096367;28;20092;-80
2023/01/16 13:25:46;;;;;;;3.75;2.80;;;5.20;87.70;;;;;;5114331;27;20031;-80
2023/01/16 13:28:48;;;;;;;3.17;2.75;;;5.20;87.70;;;;;;5062145;27;20079;-80
2023/01/16 13:31:46;;;;;;;3.83;3.00;;;5.30;87.80;;;;;;5133582;27;20420;-81
2023/01/16 13:34:20;;;;;;;4.95;2.20;;;5.30;87.70;;;;;;5114185;27;20126;-79
2023/01/16 13:37:08;;;;;;;3.38;2.15;;;5.30;87.70;;;;;;5133602;27;20043;-80
2023/01/16 13:39:41;;;;;;;4.38;2.38;;;5.30;87.60;;;;;;5116333;27;20039;-79
2023/01/16 13:42:10;;;;;;;4.33;2.30;;;5.30;87.60;;;;;;5141113;27;20044;-82
2023/01/16 13:47:29;;;;;;;6.10;1.90;;;5.40;87.60;;;;;;5130277;27;20463;-83
2023/01/16 13:50:21;;;;;;;5.30;2.28;;;5.30;87.60;;;;;;5096315;28;20058;-83
2023/01/16 13:52:48;;;;;;;6.50;2.30;;;5.40;87.60;;;;;;5113170;27;20092;-82
2023/01/16 13:55:26;;;;;;;4.43;1.92;;;5.40;87.60;;;;;;5115900;27;20035;-82
2023/01/16 13:57:54;;;;;;;3.45;2.08;;;5.30;87.70;;;;;;5116144;27;20034;-82
2023/01/16 14:00:20;;;;;;;4.03;2.15;;;5.40;87.60;;;;;;5116167;27;20438;-82
2023/01/16 14:03:02;;;;;;;3.00;2.03;;;5.40;87.60;;;;;;5099053;27;20132;-83
2023/01/16 14:05:37;;;;;;;4.00;2.22;;;5.50;87.70;;;;;;5132931;27;20121;-83
2023/01/16 14:11:35;;;;;;;3.63;1.70;;;5.50;87.80;;;;;;5132808;27;20039;-80
2023/01/16 14:17:11;;;;;;;4.65;1.75;;;5.50;87.70;;;;;;5132723;27;20049;-82
2023/01/16 14:19:56;;;;;;;4.18;1.80;;;5.50;87.60;;;;;;5098594;28;20039;-81
2023/01/16 14:24:57;;;;;;;2.80;1.90;;;5.50;87.50;;;;;;5132860;27;20122;-81
2023/01/16 14:27:32;;;;;;;4.57;1.90;;;5.50;87.60;;;;;;5132926;28;20091;-82